Time;durP1;ratioP1;P1;durP2;ratioP2;P2;SDS_P1;SDS_P2;PMS_P1;PMS_P2;Temp;Humidity;BMP_temperature;BMP_pressure;BME280_temperature;BME280_humidity;BME280_pressure;Samples;Min_cycle;Max_cycle;Signal;HPM_P1;HPM_P2
2021/12/23 05:01:28;;;;;;;47.30;16.00;;;-3.90;99.70;;;;;;5011400;28;20214;-68
2021/12/23 05:03:56;;;;;;;47.30;16.63;;;-4.00;99.70;;;;;;5011559;28;20242;-68
2021/12/23 05:06:23;;;;;;;47.77;17.00;;;-4.00;99.70;;;;;;5011141;28;20465;-68
2021/12/23 05:08:50;;;;;;;53.27;17.07;;;-4.00;99.70;;;;;;5010900;28;20847;-69
2021/12/23 05:11:16;;;;;;;50.87;16.53;;;-3.90;99.70;;;;;;5011419;28;20440;-68
2021/12/23 05:13:44;;;;;;;45.10;16.67;;;-3.90;99.70;;;;;;5011447;28;20997;-69
2021/12/23 05:16:11;;;;;;;43.90;14.93;;;-3.90;99.70;;;;;;5011139;28;20478;-68
2021/12/23 05:18:39;;;;;;;45.17;15.23;;;-3.70;99.70;;;;;;5010770;28;20437;-68
2021/12/23 05:21:06;;;;;;;40.33;14.27;;;-3.60;99.70;;;;;;5011287;28;20468;-69
2021/12/23 05:23:33;;;;;;;43.47;16.20;;;-3.60;99.70;;;;;;5011178;28;20448;-68
2021/12/23 05:25:59;;;;;;;45.70;15.77;;;-3.60;99.70;;;;;;5011264;28;20464;-68
2021/12/23 05:28:27;;;;;;;48.37;15.50;;;-3.70;99.70;;;;;;5010531;28;20481;-68
2021/12/23 05:30:53;;;;;;;49.10;15.10;;;-3.70;99.70;;;;;;5011185;28;20441;-69
2021/12/23 05:33:20;;;;;;;42.17;14.73;;;-3.70;99.70;;;;;;5011005;28;20456;-69
2021/12/23 05:35:48;;;;;;;39.97;15.20;;;-3.70;99.70;;;;;;5011065;28;20943;-68
2021/12/23 05:38:15;;;;;;;45.10;15.20;;;-3.70;99.70;;;;;;5009641;28;20446;-68
2021/12/23 05:40:41;;;;;;;41.53;14.37;;;-3.70;99.70;;;;;;5010618;28;20441;-68
2021/12/23 05:43:08;;;;;;;44.23;14.67;;;-3.60;99.70;;;;;;5010956;28;20945;-68
2021/12/23 05:45:35;;;;;;;42.90;14.53;;;-3.60;99.70;;;;;;5011159;28;20469;-69
2021/12/23 05:48:02;;;;;;;43.13;15.30;;;-3.80;99.70;;;;;;5009961;28;21028;-68
2021/12/23 05:50:28;;;;;;;40.80;14.63;;;-3.80;99.70;;;;;;5010925;28;20453;-69
2021/12/23 05:52:56;;;;;;;41.53;15.00;;;-3.90;99.70;;;;;;5010974;28;20445;-68
2021/12/23 05:55:23;;;;;;;42.27;15.97;;;-4.00;99.70;;;;;;5010842;28;20496;-68
2021/12/23 05:57:50;;;;;;;58.73;18.03;;;-3.90;99.70;;;;;;5010276;28;20521;-68
2021/12/23 06:00:20;;;;;;;57.07;17.80;;;-3.80;99.70;;;;;;5011060;28;20503;-68
2021/12/23 06:02:47;;;;;;;46.17;16.53;;;-3.90;99.70;;;;;;5010701;28;20456;-68
2021/12/23 06:05:14;;;;;;;48.63;16.70;;;-3.90;99.70;;;;;;5010707;28;20466;-68
2021/12/23 06:07:42;;;;;;;50.43;16.73;;;-3.60;99.70;;;;;;5012411;28;20477;-67
2021/12/23 06:10:12;;;;;;;50.07;16.10;;;-3.60;99.70;;;;;;5014260;28;20445;-68
2021/12/23 06:12:39;;;;;;;48.77;16.97;;;-3.70;99.70;;;;;;5014236;28;20540;-69
2021/12/23 06:15:07;;;;;;;49.43;16.47;;;-3.90;99.70;;;;;;5014267;28;20477;-69
2021/12/23 06:17:34;;;;;;;52.70;17.30;;;-4.10;99.70;;;;;;5014049;28;20441;-68
2021/12/23 06:20:00;;;;;;;56.53;19.70;;;-3.90;99.70;;;;;;5013809;28;20450;-68
2021/12/23 06:22:27;;;;;;;58.90;19.23;;;-4.00;99.70;;;;;;5014057;28;20453;-68
2021/12/23 06:24:54;;;;;;;63.80;19.97;;;-4.10;99.70;;;;;;5014084;28;20497;-68
2021/12/23 06:27:23;;;;;;;55.87;18.27;;;-4.10;99.70;;;;;;5013677;28;21039;-69
2021/12/23 06:29:50;;;;;;;48.13;17.07;;;-3.90;99.70;;;;;;5013744;28;20453;-68
2021/12/23 06:32:16;;;;;;;49.10;16.67;;;-3.80;99.70;;;;;;5013952;28;20872;-68
2021/12/23 06:34:43;;;;;;;46.57;15.10;;;-3.70;99.70;;;;;;5013882;28;20441;-69
2021/12/23 06:37:10;;;;;;;51.57;15.90;;;-3.70;99.70;;;;;;5013867;28;20445;-68
2021/12/23 06:39:38;;;;;;;50.60;17.70;;;-3.80;99.70;;;;;;5013391;28;20456;-68
2021/12/23 06:42:06;;;;;;;44.00;16.27;;;-4.00;99.70;;;;;;5013754;28;20531;-69
2021/12/23 06:44:34;;;;;;;45.80;15.27;;;-3.90;99.70;;;;;;5013643;28;20468;-68
2021/12/23 06:47:00;;;;;;;45.43;16.47;;;-4.00;99.70;;;;;;5012761;28;20449;-68
2021/12/23 06:49:31;;;;;;;43.37;16.37;;;-3.90;99.70;;;;;;5012829;28;20442;-68
2021/12/23 06:51:58;;;;;;;43.60;15.77;;;-3.60;99.70;;;;;;5013669;28;20465;-68
2021/12/23 06:54:25;;;;;;;49.30;16.97;;;-3.40;99.70;;;;;;5013525;28;20446;-68
2021/12/23 06:56:51;;;;;;;46.60;18.33;;;-3.40;99.70;;;;;;5013267;28;20456;-68
2021/12/23 06:59:18;;;;;;;49.20;16.30;;;-3.40;99.70;;;;;;5013049;28;20438;-69
2021/12/23 07:01:48;;;;;;;46.10;16.23;;;-3.10;99.70;;;;;;5013399;28;20511;-68
2021/12/23 07:04:17;;;;;;;48.10;17.23;;;-3.00;99.70;;;;;;5013417;28;20822;-70
2021/12/23 07:06:52;;;;;;;48.30;16.77;;;-3.10;99.70;;;;;;5011135;28;20501;-68
2021/12/23 07:09:19;;;;;;;46.80;16.13;;;-3.20;99.70;;;;;;5011151;28;20453;-69
2021/12/23 07:11:46;;;;;;;49.57;16.30;;;-3.20;99.70;;;;;;5009878;28;20462;-68
2021/12/23 07:14:12;;;;;;;48.53;16.50;;;-2.60;99.70;;;;;;5013299;28;20442;-69
2021/12/23 07:16:40;;;;;;;49.53;16.40;;;-2.80;99.70;;;;;;5023227;28;20552;-68
2021/12/23 07:19:09;;;;;;;45.67;15.57;;;-3.00;99.70;;;;;;5032159;28;20444;-69
2021/12/23 07:21:35;;;;;;;48.07;15.90;;;-3.30;99.70;;;;;;5032544;28;20457;-67
2021/12/23 07:24:03;;;;;;;47.93;16.53;;;-3.00;99.70;;;;;;5032630;28;20452;-69
2021/12/23 07:26:30;;;;;;;45.13;15.27;;;-3.10;99.70;;;;;;5032582;28;20562;-68
2021/12/23 07:28:57;;;;;;;46.60;16.00;;;-3.00;99.70;;;;;;5032130;28;20476;-68
2021/12/23 07:31:23;;;;;;;53.87;17.93;;;-3.20;99.70;;;;;;5032749;28;20452;-68
2021/12/23 07:33:50;;;;;;;46.03;16.53;;;-3.20;99.70;;;;;;5032530;28;20779;-69
2021/12/23 07:36:19;;;;;;;44.50;17.20;;;-3.40;99.70;;;;;;5032446;28;20471;-69
2021/12/23 07:38:46;;;;;;;50.03;15.70;;;-3.40;99.70;;;;;;5031969;28;20436;-69
2021/12/23 07:41:12;;;;;;;50.43;17.67;;;-3.40;99.70;;;;;;5032059;28;20447;-68
2021/12/23 07:43:58;;;;;;;58.10;19.20;;;-3.40;99.70;;;;;;5015149;28;20441;-69
2021/12/23 07:46:26;;;;;;;46.80;17.17;;;-3.60;99.70;;;;;;5010197;28;20469;-67
2021/12/23 07:48:53;;;;;;;50.87;16.60;;;-3.50;99.70;;;;;;5016156;28;20487;-69
2021/12/23 07:51:21;;;;;;;42.77;15.00;;;-3.20;99.70;;;;;;5021976;28;20464;-69
2021/12/23 07:53:50;;;;;;;45.47;16.03;;;-3.10;99.70;;;;;;5008779;28;20461;-70
2021/12/23 07:56:17;;;;;;;50.70;16.37;;;-3.10;99.70;;;;;;5008082;28;20469;-69
2021/12/23 07:58:43;;;;;;;46.93;16.13;;;-3.00;99.70;;;;;;5010973;28;20453;-68
2021/12/23 08:01:10;;;;;;;46.60;16.30;;;-2.70;99.70;;;;;;5010134;28;20970;-70
2021/12/23 08:03:37;;;;;;;44.77;16.07;;;-2.80;99.70;;;;;;5012483;28;20532;-69
2021/12/23 08:06:04;;;;;;;47.57;16.33;;;-2.60;99.70;;;;;;5009904;28;20948;-68
2021/12/23 08:08:32;;;;;;;47.43;15.97;;;-2.40;99.70;;;;;;5014596;28;20520;-69
2021/12/23 08:10:59;;;;;;;45.53;16.63;;;-2.40;99.70;;;;;;5005970;28;20460;-68
2021/12/23 08:13:26;;;;;;;57.13;17.63;;;-2.30;99.70;;;;;;5011164;28;20474;-69
2021/12/23 08:15:53;;;;;;;46.50;18.03;;;-2.50;99.70;;;;;;5013379;28;20485;-69
2021/12/23 08:18:20;;;;;;;57.30;17.30;;;-2.60;99.70;;;;;;5011458;28;20492;-69
2021/12/23 08:20:47;;;;;;;50.47;16.60;;;-2.80;99.70;;;;;;5007213;28;20465;-67
2021/12/23 08:23:13;;;;;;;48.13;17.63;;;-2.90;99.70;;;;;;5008933;28;20461;-70
2021/12/23 08:25:42;;;;;;;48.10;17.80;;;-3.00;99.70;;;;;;5007765;28;21009;-69
2021/12/23 08:28:09;;;;;;;52.73;19.37;;;-2.90;99.70;;;;;;5009597;28;20486;-70
2021/12/23 08:30:39;;;;;;;54.17;18.43;;;-2.70;99.70;;;;;;5009413;28;20967;-67
2021/12/23 08:33:06;;;;;;;53.87;19.60;;;-2.80;99.70;;;;;;5010946;28;20452;-68
2021/12/23 08:35:32;;;;;;;66.03;23.27;;;-2.80;99.70;;;;;;5010403;28;20827;-68
2021/12/23 08:37:59;;;;;;;65.63;21.87;;;-2.90;99.70;;;;;;5010077;28;20864;-68
2021/12/23 08:40:28;;;;;;;52.80;19.77;;;-2.80;99.70;;;;;;5007966;28;20869;-68
2021/12/23 08:42:57;;;;;;;68.33;22.00;;;-2.70;99.70;;;;;;5011419;28;20507;-68
2021/12/23 08:45:24;;;;;;;57.30;21.80;;;-2.70;99.70;;;;;;5006777;28;20482;-68
2021/12/23 08:47:54;;;;;;;60.20;20.67;;;-2.70;99.70;;;;;;4997429;28;20989;-68
2021/12/23 08:50:21;;;;;;;53.53;18.33;;;-2.70;99.70;;;;;;5001964;28;20540;-68
2021/12/23 08:52:48;;;;;;;63.33;21.43;;;-2.60;99.70;;;;;;5006062;28;20453;-68
2021/12/23 08:55:16;;;;;;;61.83;20.43;;;-2.50;99.70;;;;;;5002112;28;20486;-67
2021/12/23 08:57:43;;;;;;;75.87;23.60;;;-2.50;99.70;;;;;;5004924;28;20466;-67
2021/12/23 09:00:16;;;;;;;44.43;16.10;;;-2.50;99.70;;;;;;5009589;28;20489;-68
2021/12/23 09:02:43;;;;;;;53.13;18.20;;;-2.60;99.70;;;;;;5010625;28;20473;-68
2021/12/23 09:05:11;;;;;;;49.93;17.07;;;-2.60;99.70;;;;;;5010868;28;20485;-69
2021/12/23 09:07:38;;;;;;;52.23;16.23;;;-2.60;99.70;;;;;;5009181;28;20956;-67
2021/12/23 09:10:07;;;;;;;44.77;16.40;;;-2.60;99.70;;;;;;5011239;28;20503;-67
2021/12/23 09:12:34;;;;;;;45.83;16.50;;;-2.30;99.70;;;;;;5010918;28;20500;-68
2021/12/23 09:15:01;;;;;;;46.87;16.50;;;-2.40;99.70;;;;;;5010797;28;20469;-69
2021/12/23 09:17:30;;;;;;;47.60;17.93;;;-2.20;99.70;;;;;;5010867;28;20450;-69
2021/12/23 09:19:57;;;;;;;50.60;17.23;;;-2.00;99.70;;;;;;5010433;28;20460;-68
2021/12/23 09:22:24;;;;;;;52.37;17.73;;;-2.00;99.70;;;;;;5010943;28;21012;-68
2021/12/23 09:24:56;;;;;;;43.60;15.87;;;-2.00;99.70;;;;;;5010918;28;20982;-69
2021/12/23 09:27:30;;;;;;;47.37;17.23;;;-2.10;99.70;;;;;;5010623;28;20453;-68
2021/12/23 09:32:52;;;;;;;49.63;18.23;;;-1.80;99.70;;;;;;5009934;28;20453;-68
2021/12/23 09:35:21;;;;;;;50.10;16.93;;;-1.90;99.70;;;;;;5012280;28;20484;-68
2021/12/23 09:37:48;;;;;;;48.37;17.20;;;-1.90;99.70;;;;;;5005407;28;20792;-68
2021/12/23 09:40:15;;;;;;;46.10;17.23;;;-1.70;99.70;;;;;;5009825;28;20454;-68
2021/12/23 09:42:44;;;;;;;51.83;16.53;;;-1.80;99.70;;;;;;5013239;28;20536;-68
2021/12/23 09:45:14;;;;;;;45.23;16.80;;;-1.70;99.70;;;;;;5014156;28;20885;-69
2021/12/23 09:47:42;;;;;;;48.90;18.57;;;-1.60;99.70;;;;;;5014805;28;20460;-68
2021/12/23 09:50:13;;;;;;;50.70;17.77;;;-1.60;99.70;;;;;;5014212;28;20457;-69
2021/12/23 09:52:43;;;;;;;49.47;17.00;;;-1.50;99.70;;;;;;5012908;28;20479;-68
2021/12/23 09:55:11;;;;;;;48.67;17.57;;;-1.40;99.70;;;;;;5016421;28;20465;-68
2021/12/23 09:57:38;;;;;;;50.60;18.30;;;-1.40;99.70;;;;;;5013303;28;20445;-68
2021/12/23 10:00:09;;;;;;;48.97;16.53;;;-1.30;99.70;;;;;;4996967;28;20553;-68
2021/12/23 10:02:40;;;;;;;44.97;16.53;;;-1.30;99.70;;;;;;5013522;28;20457;-69
2021/12/23 10:05:10;;;;;;;40.60;15.87;;;-1.20;99.70;;;;;;5013889;28;20481;-69
2021/12/23 10:07:38;;;;;;;45.73;16.10;;;-1.10;99.70;;;;;;5014080;28;20450;-69
2021/12/23 10:10:11;;;;;;;44.73;16.80;;;-0.80;99.70;;;;;;5013780;28;20516;-68
2021/12/23 10:27:12;;;;;;;43.67;16.87;;;-0.60;99.70;;;;;;5011051;28;20536;-68
2021/12/23 10:32:50;;;;;;;51.90;17.80;;;-0.50;99.70;;;;;;5010486;28;20931;-68
2021/12/23 10:38:10;;;;;;;53.97;18.30;;;-0.50;99.70;;;;;;5009148;28;20535;-69
2021/12/23 10:40:38;;;;;;;54.80;20.07;;;-0.50;99.70;;;;;;5012330;28;20969;-69
2021/12/23 10:43:06;;;;;;;60.70;21.63;;;-0.70;99.70;;;;;;5012639;28;20438;-68
2021/12/23 10:45:42;;;;;;;56.93;21.60;;;-0.70;99.70;;;;;;5012290;28;20468;-68
2021/12/23 10:48:14;;;;;;;61.87;21.60;;;-0.60;99.70;;;;;;5009995;28;20981;-69
2021/12/23 10:50:44;;;;;;;68.77;22.97;;;-0.50;99.70;;;;;;5008096;28;20441;-68
2021/12/23 10:53:27;;;;;;;66.30;22.07;;;-0.40;99.70;;;;;;5011527;28;20488;-68
2021/12/23 10:59:10;;;;;;;50.70;19.47;;;-0.10;99.70;;;;;;5011745;28;20869;-68
2021/12/23 11:01:41;;;;;;;50.00;18.10;;;-0.10;99.70;;;;;;5010045;28;20562;-68
2021/12/23 11:04:09;;;;;;;54.80;19.33;;;0.10;99.70;;;;;;5008709;28;20457;-68
2021/12/23 11:06:40;;;;;;;47.47;18.33;;;0.20;99.70;;;;;;5005099;28;20540;-68
2021/12/23 11:09:34;;;;;;;49.50;18.40;;;0.40;99.70;;;;;;5008609;28;20478;-68
2021/12/23 11:27:22;;;;;;;49.20;18.13;;;0.50;99.70;;;;;;5005626;28;20453;-68
2021/12/23 11:37:54;;;;;;;45.90;17.50;;;1.50;99.70;;;;;;5010912;28;20816;-68
2021/12/23 11:40:47;;;;;;;49.80;18.30;;;1.60;99.70;;;;;;5006900;28;20512;-69
2021/12/23 11:46:01;;;;;;;49.47;17.37;;;1.90;99.70;;;;;;5012467;28;20480;-70
2021/12/23 11:48:28;;;;;;;48.00;18.47;;;1.90;99.70;;;;;;5010476;28;20898;-68
2021/12/23 11:51:05;;;;;;;50.67;18.87;;;2.00;99.70;;;;;;5010004;28;21057;-69
2021/12/23 11:53:33;;;;;;;59.67;21.97;;;2.00;99.70;;;;;;5003327;28;20552;-70
2021/12/23 11:56:01;;;;;;;57.23;23.50;;;2.00;99.70;;;;;;5009783;28;20472;-69
2021/12/23 11:58:29;;;;;;;58.13;20.83;;;1.90;99.70;;;;;;5010010;28;20441;-68
2021/12/23 12:01:04;;;;;;;53.30;19.93;;;1.80;99.70;;;;;;5011598;28;20438;-69
2021/12/23 12:03:31;;;;;;;50.43;20.60;;;1.70;99.70;;;;;;5011441;28;20849;-69
2021/12/23 12:06:14;;;;;;;56.53;21.00;;;1.60;99.70;;;;;;5007005;28;20473;-68
2021/12/23 12:08:41;;;;;;;53.80;20.30;;;1.70;99.70;;;;;;5008740;28;20833;-70
2021/12/23 12:11:22;;;;;;;49.37;19.33;;;1.70;99.70;;;;;;5003339;28;20446;-68
2021/12/23 12:13:50;;;;;;;53.10;20.93;;;1.80;99.70;;;;;;5008993;28;21069;-69
2021/12/23 12:16:29;;;;;;;47.87;20.70;;;1.70;99.70;;;;;;5010668;28;20477;-69
2021/12/23 12:18:56;;;;;;;60.80;21.43;;;1.80;99.70;;;;;;5010147;28;20441;-70
2021/12/23 12:21:25;;;;;;;57.67;21.73;;;1.90;99.70;;;;;;5011403;28;20458;-69
2021/12/23 12:24:09;;;;;;;60.17;22.63;;;1.80;99.70;;;;;;5011003;28;20448;-69
2021/12/23 12:26:49;;;;;;;62.17;20.83;;;1.80;99.70;;;;;;5015146;28;20468;-69
2021/12/23 12:29:20;;;;;;;53.53;21.67;;;1.80;99.70;;;;;;5010626;28;20572;-68
2021/12/23 12:31:47;;;;;;;58.00;21.80;;;1.70;99.70;;;;;;5010498;28;20449;-68
2021/12/23 12:34:14;;;;;;;57.77;22.30;;;1.80;99.70;;;;;;5011212;28;20537;-69
2021/12/23 12:36:43;;;;;;;56.40;22.10;;;1.70;99.70;;;;;;5010577;28;20990;-69
2021/12/23 12:39:17;;;;;;;62.90;22.43;;;1.70;99.70;;;;;;5011070;28;20507;-69
2021/12/23 12:41:46;;;;;;;56.80;21.30;;;1.70;99.70;;;;;;5011291;28;20978;-68
2021/12/23 12:44:19;;;;;;;52.47;21.37;;;1.70;99.70;;;;;;5011048;28;20473;-70
2021/12/23 12:47:05;;;;;;;51.43;20.87;;;1.70;99.70;;;;;;5010453;28;20470;-68
2021/12/23 12:49:36;;;;;;;53.20;19.63;;;1.70;99.70;;;;;;5010324;28;20535;-67
2021/12/23 12:52:25;;;;;;;55.60;21.20;;;2.00;99.70;;;;;;5011022;28;20460;-69
2021/12/23 12:54:59;;;;;;;62.47;23.37;;;2.00;99.70;;;;;;5001495;28;20473;-69
2021/12/23 12:57:31;;;;;;;54.33;20.27;;;1.90;99.70;;;;;;5010560;28;20453;-68
2021/12/23 13:00:15;;;;;;;52.47;20.80;;;2.00;99.70;;;;;;5010747;28;20445;-69
2021/12/23 13:02:49;;;;;;;48.70;19.70;;;1.80;99.70;;;;;;5008273;28;20453;-68
2021/12/23 13:05:16;;;;;;;53.07;20.13;;;1.80;99.70;;;;;;5009966;28;20465;-70
2021/12/23 13:07:48;;;;;;;53.40;20.83;;;1.80;99.70;;;;;;5010688;28;20456;-68
2021/12/23 13:10:19;;;;;;;54.33;22.17;;;1.80;99.70;;;;;;5010680;28;20851;-69
2021/12/23 13:12:52;;;;;;;59.33;22.60;;;1.70;99.70;;;;;;5010695;28;20531;-70
2021/12/23 13:15:22;;;;;;;164.43;54.63;;;1.80;99.70;;;;;;5008200;28;21002;-70
2021/12/23 13:18:01;;;;;;;102.40;34.20;;;1.80;99.70;;;;;;5013491;28;20441;-69
2021/12/23 13:20:40;;;;;;;99.03;30.90;;;1.90;99.70;;;;;;5014549;28;20454;-69
2021/12/23 13:23:12;;;;;;;61.07;23.77;;;1.90;99.70;;;;;;5014872;28;20449;-69
2021/12/23 13:25:46;;;;;;;55.37;22.63;;;2.10;99.70;;;;;;5014165;28;21060;-69
2021/12/23 13:28:20;;;;;;;50.80;19.53;;;2.10;99.70;;;;;;5012977;28;20449;-69
2021/12/23 13:30:47;;;;;;;56.93;20.90;;;2.20;99.70;;;;;;5012422;28;21234;-68
2021/12/23 13:33:15;;;;;;;50.17;20.40;;;2.20;99.70;;;;;;5013957;28;20541;-69
2021/12/23 13:35:42;;;;;;;47.07;18.90;;;2.30;99.70;;;;;;5017748;28;20546;-69
2021/12/23 13:38:10;;;;;;;50.07;19.10;;;2.40;99.70;;;;;;5013712;28;20464;-68
2021/12/23 13:40:38;;;;;;;47.30;20.00;;;2.40;99.70;;;;;;5013725;28;20449;-68
2021/12/23 13:43:05;;;;;;;47.20;18.17;;;2.50;99.70;;;;;;5013979;28;20461;-69
2021/12/23 13:45:32;;;;;;;47.43;19.50;;;2.60;99.70;;;;;;5015378;28;20481;-69
2021/12/23 13:48:00;;;;;;;46.73;18.67;;;2.70;99.70;;;;;;5013832;28;20446;-69
2021/12/23 13:50:29;;;;;;;43.17;16.90;;;2.70;99.70;;;;;;5013929;28;20485;-68
2021/12/23 13:52:56;;;;;;;37.43;16.90;;;2.90;99.70;;;;;;5013977;28;20452;-68
2021/12/23 13:55:25;;;;;;;43.03;15.77;;;3.10;99.70;;;;;;5013963;28;20488;-69
2021/12/23 13:57:55;;;;;;;37.83;13.57;;;3.20;99.70;;;;;;5013174;28;20445;-69
2021/12/23 14:00:25;;;;;;;35.50;13.97;;;3.30;99.70;;;;;;5013657;28;20450;-69
2021/12/23 14:02:54;;;;;;;37.37;14.13;;;3.40;99.70;;;;;;5012727;28;20454;-68
2021/12/23 14:05:22;;;;;;;34.57;13.20;;;3.60;99.70;;;;;;5012869;28;20918;-68
2021/12/23 14:07:52;;;;;;;31.33;12.20;;;3.70;99.70;;;;;;5017709;28;20461;-68
2021/12/23 14:10:20;;;;;;;29.57;12.63;;;3.80;99.70;;;;;;5010414;28;20483;-69
2021/12/23 14:12:50;;;;;;;30.93;14.00;;;3.80;99.70;;;;;;5013566;28;20441;-68
2021/12/23 14:15:19;;;;;;;28.30;12.93;;;3.80;99.70;;;;;;5013115;28;20536;-68
2021/12/23 14:17:48;;;;;;;31.57;12.33;;;3.80;99.70;;;;;;5012851;28;20461;-68
2021/12/23 14:23:13;;;;;;;31.20;13.57;;;3.90;99.70;;;;;;5006660;28;20827;-67
2021/12/23 14:25:45;;;;;;;33.10;12.27;;;3.80;99.70;;;;;;5006961;28;20477;-68
2021/12/23 14:28:14;;;;;;;28.13;13.43;;;3.80;99.70;;;;;;5009300;28;20527;-68
2021/12/23 14:30:45;;;;;;;38.97;15.93;;;3.80;99.70;;;;;;5011217;28;20495;-68
2021/12/23 14:33:14;;;;;;;51.53;22.00;;;3.90;99.70;;;;;;5007845;28;20462;-68
2021/12/23 14:35:41;;;;;;;70.20;29.00;;;4.00;99.70;;;;;;5011428;28;20477;-68
2021/12/23 14:38:09;;;;;;;53.20;23.07;;;3.90;99.70;;;;;;5012211;28;20464;-69
2021/12/23 14:40:36;;;;;;;52.33;22.27;;;3.90;99.70;;;;;;5013534;28;20822;-68
2021/12/23 14:43:04;;;;;;;40.60;18.83;;;3.80;99.70;;;;;;5012430;28;20457;-69
2021/12/23 14:45:30;;;;;;;35.17;14.87;;;3.90;99.70;;;;;;5012839;28;20464;-68
2021/12/23 14:48:09;;;;;;;29.73;13.77;;;4.00;99.70;;;;;;5006010;28;20868;-69
2021/12/23 14:50:49;;;;;;;21.77;9.80;;;4.10;99.70;;;;;;5012861;28;20911;-69
2021/12/23 14:53:21;;;;;;;26.70;10.10;;;4.20;99.70;;;;;;5013180;28;20468;-68
2021/12/23 14:55:59;;;;;;;27.10;13.10;;;4.20;99.70;;;;;;5013128;28;20474;-69
2021/12/23 14:58:26;;;;;;;26.40;11.50;;;4.20;99.70;;;;;;5008356;28;20462;-69
2021/12/23 15:00:54;;;;;;;23.60;11.73;;;4.30;99.70;;;;;;5012838;28;20437;-69
2021/12/23 15:03:23;;;;;;;26.30;11.90;;;4.30;99.70;;;;;;5007376;28;21139;-70
2021/12/23 15:05:52;;;;;;;24.07;12.20;;;4.30;99.70;;;;;;5010363;28;20481;-69
2021/12/23 15:08:24;;;;;;;25.40;11.53;;;4.40;99.70;;;;;;5009899;28;20826;-69
2021/12/23 15:10:52;;;;;;;21.47;10.37;;;4.40;99.70;;;;;;5009360;28;20470;-70
2021/12/23 15:13:28;;;;;;;20.30;9.50;;;4.50;99.70;;;;;;5010933;28;20441;-69
2021/12/23 15:15:59;;;;;;;20.40;9.10;;;4.60;99.70;;;;;;5008961;28;20475;-69
2021/12/23 15:18:34;;;;;;;19.90;8.80;;;4.60;99.70;;;;;;5006180;28;20441;-69
2021/12/23 15:21:06;;;;;;;16.30;8.30;;;4.70;99.70;;;;;;5009567;28;20479;-69
2021/12/23 15:23:44;;;;;;;18.27;8.70;;;4.70;99.70;;;;;;5012171;28;20445;-70
2021/12/23 15:26:22;;;;;;;15.90;8.40;;;4.80;99.70;;;;;;5011987;28;20471;-70
2021/12/23 15:29:16;;;;;;;21.13;8.63;;;4.90;99.70;;;;;;5012100;28;20469;-70
2021/12/23 15:31:51;;;;;;;15.57;7.80;;;5.00;99.70;;;;;;5012008;28;20468;-69
2021/12/23 15:34:18;;;;;;;16.03;8.10;;;4.90;99.70;;;;;;5012650;28;20504;-69
2021/12/23 15:36:45;;;;;;;20.10;9.13;;;4.90;99.70;;;;;;5012042;28;20523;-69
2021/12/23 15:39:18;;;;;;;23.83;9.40;;;4.90;99.70;;;;;;5011778;28;20448;-69
2021/12/23 15:41:56;;;;;;;21.50;9.90;;;4.80;99.70;;;;;;5012766;28;20452;-69
2021/12/23 15:44:24;;;;;;;25.93;10.40;;;4.90;99.70;;;;;;5012336;28;20460;-66
2021/12/23 15:46:52;;;;;;;25.23;11.40;;;4.90;99.70;;;;;;5012107;28;20470;-66
2021/12/23 15:49:18;;;;;;;21.70;9.80;;;4.80;99.70;;;;;;5011180;28;20449;-66
2021/12/23 15:51:46;;;;;;;25.20;11.57;;;4.90;99.70;;;;;;5012732;28;21017;-65
2021/12/23 15:54:12;;;;;;;27.90;12.00;;;5.00;99.70;;;;;;5019586;28;20465;-66
2021/12/23 15:56:41;;;;;;;20.07;9.73;;;4.90;99.70;;;;;;5011891;28;20469;-66
2021/12/23 15:59:08;;;;;;;24.50;10.47;;;4.90;99.70;;;;;;5010553;28;20453;-66
2021/12/23 16:01:35;;;;;;;20.20;10.07;;;4.90;99.70;;;;;;5012325;28;20854;-65
2021/12/23 16:04:03;;;;;;;19.97;9.83;;;4.90;99.70;;;;;;5010543;28;20537;-67
2021/12/23 16:09:18;;;;;;;22.53;10.40;;;4.90;99.70;;;;;;5009852;28;20440;-67
2021/12/23 16:11:47;;;;;;;27.93;10.83;;;5.00;99.70;;;;;;5009498;28;21009;-68
2021/12/23 16:14:14;;;;;;;26.93;12.50;;;4.90;99.70;;;;;;5011287;28;20442;-66
2021/12/23 16:16:41;;;;;;;21.83;10.97;;;4.90;99.70;;;;;;5011681;28;20495;-66
2021/12/23 16:19:08;;;;;;;33.13;11.67;;;4.80;99.70;;;;;;5011341;28;20450;-66
2021/12/23 16:21:35;;;;;;;27.93;13.20;;;5.00;99.70;;;;;;5012124;28;20453;-66
2021/12/23 16:24:02;;;;;;;24.83;11.00;;;4.90;99.70;;;;;;5010865;28;20453;-66
2021/12/23 16:26:29;;;;;;;26.43;11.30;;;5.00;99.70;;;;;;5002270;28;20851;-64
2021/12/23 16:28:57;;;;;;;29.23;11.30;;;5.00;99.70;;;;;;5008976;28;20966;-65
2021/12/23 16:31:25;;;;;;;22.63;10.50;;;4.80;99.70;;;;;;5011405;28;20474;-65
2021/12/23 16:33:53;;;;;;;23.37;10.40;;;4.70;99.70;;;;;;5011637;28;20449;-64
2021/12/23 16:36:20;;;;;;;23.23;10.67;;;4.60;99.70;;;;;;5009908;28;20469;-66
2021/12/23 16:38:48;;;;;;;23.07;11.47;;;4.50;99.70;;;;;;5006387;28;20461;-67
2021/12/23 16:41:14;;;;;;;44.77;16.63;;;4.50;99.70;;;;;;5007251;28;20491;-65
2021/12/23 16:43:41;;;;;;;38.97;14.80;;;4.50;99.70;;;;;;5017216;28;20442;-67
2021/12/23 16:46:10;;;;;;;33.80;14.40;;;4.80;99.70;;;;;;5008947;28;20477;-66
2021/12/23 16:48:36;;;;;;;30.33;12.77;;;4.70;99.70;;;;;;5001361;28;20466;-66
2021/12/23 16:51:05;;;;;;;32.10;12.73;;;4.80;99.70;;;;;;5008968;28;20512;-65
2021/12/23 16:53:33;;;;;;;30.47;12.90;;;4.80;99.70;;;;;;5011113;28;20526;-66
2021/12/23 16:56:35;;;;;;;27.40;12.30;;;4.80;99.70;;;;;;5013899;28;20473;-66
2021/12/23 16:59:01;;;;;;;26.83;11.20;;;4.70;99.70;;;;;;5004623;28;20540;-65
2021/12/23 17:01:29;;;;;;;27.47;12.67;;;4.90;99.70;;;;;;5004687;28;20454;-65
2021/12/23 17:03:56;;;;;;;31.77;13.70;;;4.80;99.70;;;;;;5006764;28;20846;-67
2021/12/23 17:06:23;;;;;;;60.43;20.80;;;4.70;99.70;;;;;;5005743;28;20897;-65
2021/12/23 17:08:49;;;;;;;47.17;17.57;;;4.70;99.70;;;;;;5007839;28;20472;-66
2021/12/23 17:11:16;;;;;;;32.90;14.80;;;4.70;99.70;;;;;;5006602;28;20917;-66
2021/12/23 17:13:49;;;;;;;36.30;15.03;;;4.70;99.70;;;;;;5009343;28;20449;-67
2021/12/23 17:16:16;;;;;;;36.50;14.53;;;4.60;99.70;;;;;;5009320;28;20580;-66
2021/12/23 17:18:57;;;;;;;34.07;15.87;;;4.50;99.70;;;;;;5008155;28;20974;-65
2021/12/23 17:24:09;;;;;;;37.73;17.13;;;4.30;99.70;;;;;;5010685;28;20804;-65
2021/12/23 17:26:35;;;;;;;49.83;20.73;;;4.20;99.70;;;;;;5009102;28;20518;-66
2021/12/23 17:29:02;;;;;;;43.13;18.80;;;4.10;99.70;;;;;;5003500;28;20874;-65
2021/12/23 17:31:29;;;;;;;55.13;21.17;;;4.30;99.70;;;;;;5013507;28;20492;-66
2021/12/23 17:33:57;;;;;;;48.33;20.40;;;4.30;99.70;;;;;;5010793;28;20460;-66
2021/12/23 17:36:24;;;;;;;64.50;26.23;;;4.30;99.70;;;;;;5010363;28;20834;-66
2021/12/23 17:38:51;;;;;;;55.00;24.07;;;4.40;99.70;;;;;;5010314;28;20448;-66
2021/12/23 17:41:20;;;;;;;52.00;22.10;;;4.60;99.70;;;;;;5010964;28;20437;-65
2021/12/23 17:43:47;;;;;;;56.57;24.60;;;4.80;99.70;;;;;;5009328;28;20449;-65
2021/12/23 17:46:14;;;;;;;51.77;21.90;;;4.80;99.70;;;;;;5011513;28;20484;-65
2021/12/23 17:48:41;;;;;;;47.90;21.87;;;4.80;99.70;;;;;;5011141;28;20942;-66
2021/12/23 17:51:09;;;;;;;49.50;21.60;;;4.80;99.70;;;;;;5010686;28;20489;-65
2021/12/23 17:53:36;;;;;;;49.57;21.17;;;4.80;99.70;;;;;;5011057;28;20480;-65
2021/12/23 17:56:03;;;;;;;43.50;20.70;;;4.70;99.70;;;;;;5010445;28;20470;-65
2021/12/23 17:58:30;;;;;;;41.93;18.43;;;4.70;99.70;;;;;;5010771;28;20457;-65
2021/12/23 18:00:58;;;;;;;36.13;17.30;;;4.80;99.70;;;;;;5010880;28;20441;-65
2021/12/23 18:03:25;;;;;;;36.90;17.00;;;4.80;99.70;;;;;;5014238;28;20617;-66
2021/12/23 18:05:52;;;;;;;34.77;15.20;;;4.80;99.70;;;;;;5014178;28;20492;-65
2021/12/23 18:08:21;;;;;;;32.87;15.83;;;4.90;99.70;;;;;;5014081;28;20830;-65
2021/12/23 18:10:48;;;;;;;34.57;15.40;;;5.00;99.70;;;;;;5014290;28;20902;-66
2021/12/23 18:13:16;;;;;;;36.80;16.43;;;5.30;99.70;;;;;;5009122;28;20820;-66
2021/12/23 18:15:43;;;;;;;34.83;15.20;;;5.30;99.70;;;;;;5011204;28;20913;-64
2021/12/23 18:18:09;;;;;;;34.87;14.77;;;5.20;99.70;;;;;;5013035;28;20448;-65
2021/12/23 18:20:37;;;;;;;25.53;12.20;;;5.30;99.70;;;;;;5012377;28;20457;-66
2021/12/23 18:23:05;;;;;;;30.70;14.00;;;5.40;99.70;;;;;;5013682;28;20452;-65
2021/12/23 18:25:35;;;;;;;28.93;13.40;;;5.10;99.70;;;;;;5013392;28;20469;-65
2021/12/23 18:28:11;;;;;;;24.47;12.30;;;5.10;99.70;;;;;;5013090;28;20450;-66
2021/12/23 18:30:38;;;;;;;22.87;11.73;;;5.00;99.70;;;;;;5013459;28;20477;-66
2021/12/23 18:33:05;;;;;;;33.30;15.57;;;4.90;99.70;;;;;;5013703;28;20457;-64
2021/12/23 18:35:36;;;;;;;27.83;13.63;;;5.00;99.70;;;;;;5012307;28;20480;-66
2021/12/23 18:38:07;;;;;;;27.47;13.10;;;4.90;99.70;;;;;;5013471;28;20476;-66
2021/12/23 18:40:44;;;;;;;29.03;12.20;;;5.00;99.70;;;;;;5011614;28;20473;-66
2021/12/23 18:43:11;;;;;;;26.20;11.60;;;5.00;99.70;;;;;;5012518;28;20461;-65
2021/12/23 18:45:38;;;;;;;28.73;12.47;;;4.90;99.70;;;;;;5013103;28;20490;-66